CST,Max TemperatureF,Mean TemperatureF,Min TemperatureF,Max Dew PointF,MeanDew PointF,Min DewpointF,Max Humidity, Mean Humidity, Min Humidity, Max Sea Level PressureIn, Mean Sea Level PressureIn, Min Sea Level PressureIn, Max VisibilityMiles, Mean VisibilityMiles, Min VisibilityMiles, Max Wind SpeedMPH, Mean Wind SpeedMPH, Max Gust SpeedMPH,PrecipitationIn, CloudCover, Events, WindDirDegrees
2011-12-1,47,40,33,32,28,23,82,66,49,30.51,30.22,29.95,10,10,10,26,14,35,0.00,5,,40
2011-12-2,36,32,27,35,24,15,92,73,53,30.51,30.32,30.14,10,9,3,17,9,22,0.01,8,Rain,152
2011-12-3,49,42,34,49,42,32,100,95,89,30.14,29.98,29.84,10,5,1,25,12,30,0.72,8,Rain-Snow-Thunderstorm,202
2011-12-4,42,34,25,30,26,24,100,77,54,30.34,30.25,30.14,10,10,10,15,7,24,0.00,4,,353
2011-12-5,30,26,22,27,20,17,85,77,68,30.49,30.42,30.32,10,10,8,25,18,32,T,7,Snow,2
2011-12-6,30,23,15,18,14,12,91,72,53,30.46,30.39,30.31,10,8,2,16,9,23,0.01,4,Snow,347
2011-12-7,42,28,14,27,20,11,92,73,54,30.31,30.23,30.15,10,10,9,14,6,16,0.00,0,,204
2011-12-8,48,36,23,30,26,21,92,71,49,30.25,30.20,30.10,10,10,8,12,5,15,0.00,5,,38
2011-12-9,33,27,21,28,25,20,92,81,69,30.56,30.42,30.25,10,7,4,15,7,17,0.00,6,,5
2011-12-10,34,27,20,31,27,19,100,91,82,30.58,30.50,30.41,5,3,0,18,8,21,0.00,4,Fog,202
2011-12-11,46,38,29,38,34,30,100,85,70,30.44,30.30,30.19,10,5,0,25,14,33,0.01,8,Fog,176
2011-12-12,45,43,40,40,34,30,93,78,62,30.29,30.23,30.17,10,9,6,20,13,25,T,8,Rain,174
2011-12-13,50,45,39,50,42,37,100,93,86,30.28,30.17,30.00,10,3,0,17,10,22,0.26,8,Rain,158
2011-12-14,63,53,43,60,53,37,100,84,67,29.98,29.86,29.75,10,5,0,26,13,32,0.71,7,Rain-Thunderstorm,204
2011-12-15,46,39,32,36,27,21,82,62,42,30.41,30.26,30.01,10,10,10,23,11,29,0.00,2,,358
2011-12-16,44,34,23,28,25,21,88,69,49,30.50,30.44,30.40,10,10,10,10,4,15,0.00,1,,184
2011-12-17,56,40,24,36,29,23,100,69,38,30.47,30.41,30.35,10,10,8,14,6,16,0.00,0,,250
2011-12-18,54,42,30,40,35,27,92,73,54,30.33,30.12,29.93,10,9,6,23,12,28,0.00,5,,182
2011-12-19,49,43,37,46,44,37,100,86,71,30.01,29.93,29.86,10,5,1,30,15,37,1.89,8,Rain-Thunderstorm,105
2011-12-20,38,33,27,38,32,25,100,93,85,29.96,29.91,29.86,10,5,2,24,14,30,0.08,7,Rain,358
2011-12-21,45,35,24,36,31,23,92,79,65,29.93,29.89,29.82,10,10,10,17,8,21,0.00,2,,189
2011-12-22,40,33,26,36,27,21,92,81,69,30.48,30.22,29.95,10,8,4,25,16,35,T,7,Rain-Snow,10
2011-12-23,38,29,19,24,21,17,91,70,48,30.54,30.46,30.40,10,10,10,13,7,17,0.00,0,,276
2011-12-24,46,32,18,29,24,18,100,77,53,30.46,30.42,30.37,10,10,10,9,4,13,0.00,0,,234
2011-12-25,51,35,19,31,26,19,96,71,46,30.51,30.43,30.35,10,10,10,14,5,16,0.00,1,,323
2011-12-26,50,39,28,36,32,27,92,76,60,30.31,30.12,30.01,10,10,10,15,6,20,T,4,Rain,261
2011-12-27,49,37,25,28,25,23,85,62,39,30.24,30.14,30.03,10,10,10,20,10,24,0.00,1,,307
2011-12-28,52,39,26,33,29,24,92,68,44,30.11,30.04,29.97,10,10,10,13,6,16,0.00,3,,224
2011-12-29,60,44,27,40,34,27,92,68,44,29.93,29.80,29.66,10,10,10,26,8,32,0.00,4,,207
2011-12-30,60,46,31,38,30,24,82,54,25,30.00,29.95,29.81,10,10,10,26,10,32,0.00,2,,268
2011-12-31,66,51,35,37,31,21,75,49,22,30.12,29.82,29.60,10,10,6,43,21,53,0.00,2,,239